Spokane, WA

2:01 AM PST on February 11, 2016 (GMT -0800)
Craig Rd / White Rd | | Change Station
CLOSE
Current Station
Personal Weather Station
Location: Medical Lake, WA
Elevation: 2405 ft
Nearby Weather Stations

Elev 2405 ft 47.58 °N, 117.62 °W | Updated 15 seconds ago

Fog
Fog
32.0 °F
Feels Like 32 °F
N
0.2
Wind Variable Wind from SW
Gusts 2.5 mph

Today
High -- | Low -- °F
--% Chance of Precip.
Yesterday
High -- | Low -- °F
Precip. -- in
Pressure 30.28 in
Visibility 0.2 miles
Clouds Mostly Cloudy 17000 ft
Windchill 32 °F
Dew Point 32 °F
Humidity 99%
Rainfall 0.00 in
Snow Depth Not available.
7:03 AM 5:06 PM
Waxing Crescent, 11% visible
SPECI KSKA 110953Z 25003KT 1/4SM R05/1600FT FG BKN170 00/00 A3028 RMK AO2A VIS 1 1/2 RWY23 PWINO $
Pressure 30.28 in
Visibility 0.2 miles
Clouds Mostly Cloudy 17000 ft
Windchill 32 °F
Dew Point 32 °F
Humidity 99%
Rainfall 0.00 in
Snow Depth Not available.
7:03 AM 5:06 PM
Waxing Crescent, 11% visible
SPECI KSKA 110953Z 25003KT 1/4SM R05/1600FT FG BKN170 00/00 A3028 RMK AO2A VIS 1 1/2 RWY23 PWINO $

10-Day Weather Forecast

Almanac

Astronomy

Feb. 11, 2016 Rise Set
Actual Time
Civil Twilight
Nautical Twilight
Astronomical Twilight
Moon
Length of Visible Light
Length of Day
Tomorrow will be .
, % of the Moon is Illuminated

Today's Extremes

State Highs State Lows

Community

WunderPhotos

Upload Photos

1,892,030 photos uploaded!

WunderBlog® & News

Nearby

Air Quality

  Air Quality AQ Index Pollutant
Not available.

Snow Depth

Station Depth Elevation

Earthquake Activity

City Distance Mag. Time & Date
Minimum magnitude displayed is 2.5.

Coastal Water Temperatures

Place Temperature

Stations

Nearby Weather Stations

Station Location Temp. Windchill Dew Point Humidity Wind Precip. Elev Updated Type
                   

Watches & Warnings

There are currently no watches in effect.